Ana Sayfa
METAR-TAF:

METAR-TAF

Havaalanları :

Austin, Teksas, Amerika Birleşik Devletleri

Enlem: 30-24-00N, Boylam: 097-34-25W, yükseklik: 189 m

Güncel hava durumu gözlemi

Rapor saat 05:55 UTC de 16 dakika önce yapıldı.
Rüzgar güneydan 4 kt
Sıcaklık 26°C
Nem 84%
Basınç 1015 hPa
Görüş mesafesi: 16.1 km
Açık gökyüzü

METAR: KEDC 220555Z AUTO 19004KT 10SM CLR 26/23 A2997 RMK AO2

Saat: 00:11 (06:11 UTC)


TAF: eksik

4.000'den fazla havaalanı için hava durumu gözlemleri ve tahminleri (METAR ve TAF raporları).

Kullanılabilir istasyonlar harita üzerinde sarı ve kırmızı noktalarla gösterilir.

İstasyonun adını görmek için fareyi noktanın üzerinde gezdirin.

Sonrasında hava gözlem ve tahminlerini görmek için tıklayın.

Haritayı değiştirmek için: yaklaştırmak için siyah artı işaretli yeşil düğmeye ve uzaklaştırmak için de eksi işaretli düğmeye hızla tıklayın; bitişik haritalar için yeşil okları kullanın.


METAR-TAF: